Latest Weather Observations for Kadina

IDS60801

Issued at 11:35 am CST Wednesday 24 September 2014 (issued every 30 minutes, with the page automatically refreshed every 10 minutes)

About weather observations | Map of weather stations | Latest weather observations for SA | Other Formats
Station Details ID: 022050 Name: KADINA AWS Lat: -33.97 Lon: 137.66 Height: 41.14 m
Data from the previous 72 hours. | See also: Recent months at Kadina
Date/Time
CST
Temp
°C
App
Temp
°C
Dew
Point
Rel
Hum
%
Delta-T
°C
Wind Press
QNH
hPa
Press
MSL
hPa
Rain
since 9 am
mm
Dir
 
Spd
km/h
Gust
km/h
Spd
kts
Gust
kts
24/11:30am 19.2 16.4 11.5 61 4.2 WNW 17 20 9 11 1015.5 - 0.0
24/11:00am 18.8 16.8 11.4 62 4.1 NNW 13 17 7 9 1015.4 - 0.0
24/10:30am 18.8 18.2 13.4 71 3.1 NW 9 15 5 8 1015.6 - 0.0
24/10:00am 18.0 16.1 12.9 72 2.9 W 15 20 8 11 1015.8 - 0.0
24/09:30am 17.7 16.5 12.8 73 2.7 NW 11 17 6 9 1015.5 - 0.0
24/09:00am 17.2 14.8 12.5 74 2.6 NW 17 22 9 12 1015.5 1015.4 0.0
24/08:30am 15.8 15.4 13.1 84 1.5 WNW 7 11 4 6 1015.4 - 0.0
24/08:00am 14.7 13.2 13.1 90 0.9 NNE 13 20 7 11 1014.3 - 0.0
24/07:30am 14.0 13.2 12.9 93 0.6 NE 9 17 5 9 1014.0 - 0.0
24/07:00am 12.0 10.3 11.2 95 0.4 E 11 13 6 7 1014.0 - 0.0
24/06:30am 11.8 10.0 10.7 93 0.6 E 11 11 6 6 1014.1 - 0.0
24/06:00am 12.0 10.6 10.9 93 0.6 ENE 9 11 5 6 1014.0 1013.8 0.0
24/05:30am 12.1 10.7 10.8 92 0.7 ENE 9 9 5 5 1013.8 - 0.0
24/05:00am 12.2 10.8 10.8 91 0.7 ESE 9 9 5 5 1013.9 - 0.0
24/04:30am 12.9 12.2 11.3 90 0.8 NNE 6 7 3 4 1013.8 - 0.0
24/04:00am 13.5 12.4 11.9 90 0.9 NNE 9 11 5 6 1013.5 - 0.0
24/03:30am 13.9 13.4 11.9 88 1.1 NE 6 7 3 4 1013.1 - 0.0
24/03:00am 14.1 12.3 12.0 87 1.1 NNE 13 17 7 9 1013.1 1012.9 0.0
24/02:30am 14.3 13.3 12.2 87 1.1 N 9 13 5 7 1013.1 - 0.0
24/02:00am 15.0 13.7 12.5 85 1.4 NE 11 17 6 9 1013.2 - 0.0
24/01:30am 15.6 12.7 12.9 84 1.5 NNE 20 28 11 15 1013.6 - 0.0
24/01:00am 16.2 12.3 13.3 83 1.6 N 26 33 14 18 1014.5 - 0.0
24/12:30am 16.5 11.7 13.0 80 2.0 N 30 39 16 21 1015.1 - 0.0
24/12:00am 16.9 11.6 13.0 78 2.2 N 33 46 18 25 1015.2 1015.0 0.0
 
Date/Time
CST
Temp
°C
App
Temp
°C
Dew
Point
Rel
Hum
%
Delta-T
°C
Wind Press
QNH
hPa
Press
MSL
hPa
Rain
since 9 am
mm
Dir
 
Spd
km/h
Gust
km/h
Spd
kts
Gust
kts
23/11:30pm 17.7 11.8 12.4 71 2.9 N 35 46 19 25 1014.8 - 0.0
23/11:00pm 16.3 12.2 12.8 80 1.9 NNE 26 39 14 21 1014.6 - 0.0
23/10:30pm 16.1 12.5 11.7 75 2.4 NNE 22 28 12 15 1015.3 - 0.0
23/10:00pm 16.1 12.8 11.5 74 2.5 NNE 20 24 11 13 1015.4 - 0.0
23/09:30pm 15.2 13.1 11.2 77 2.1 ENE 13 17 7 9 1015.3 - 0.0
23/09:00pm 16.3 14.3 11.5 73 2.6 NNE 13 20 7 11 1015.5 1015.4 0.0
23/08:30pm 16.5 14.2 11.6 73 2.7 NE 15 20 8 11 1015.3 - 0.0
23/08:00pm 17.1 14.4 11.6 70 3.0 ENE 17 20 9 11 1014.9 - 0.0
23/07:30pm 17.2 15.1 12.3 73 2.7 ENE 15 19 8 10 1014.9 - 0.0
23/07:00pm 16.5 14.5 11.4 72 2.8 NNE 13 17 7 9 1014.6 - 0.0
23/06:30pm 17.0 14.7 10.4 65 3.5 ENE 13 15 7 8 1014.6 - 0.0
23/06:00pm 19.9 17.3 9.2 50 5.7 N 13 22 7 12 1014.7 1014.5 0.0
23/05:30pm 20.9 16.6 9.5 48 6.1 NE 22 32 12 17 1014.4 - 0.0
23/05:05pm 22.5 16.9 8.6 41 7.4 NE 28 46 15 25 1014.0 - 0.0
23/05:00pm 24.0 19.8 8.4 37 8.3 NE 20 28 11 15 1013.8 - 0.0
23/04:30pm 24.4 20.9 7.1 33 9.0 NE 15 19 8 10 1013.6 - 0.0
23/04:00pm 25.4 21.2 8.4 34 9.1 ENE 20 26 11 14 1013.9 - 0.0
23/03:30pm 26.3 21.8 6.9 29 10.2 NNE 20 28 11 15 1014.2 - 0.0
23/03:00pm 26.4 21.9 6.9 29 10.3 N 20 28 11 15 1014.6 1014.4 0.0
23/02:30pm 25.4 20.8 6.6 30 9.8 N 20 28 11 15 1014.8 - 0.0
23/02:00pm 26.6 21.5 7.6 30 10.2 N 24 35 13 19 1015.3 - 0.0
23/01:30pm 25.9 20.4 7.5 31 9.8 N 26 37 14 20 1015.7 - 0.0
23/01:00pm 25.6 20.8 9.0 35 9.0 N 24 41 13 22 1016.2 - 0.0
23/12:30pm 24.7 20.0 9.4 38 8.3 N 24 37 13 20 1016.6 - 0.0
23/12:00pm 24.3 18.3 8.7 37 8.4 N 30 43 16 23 1017.2 1017.1 0.0
23/11:30am 24.3 19.2 9.1 38 8.2 N 26 37 14 20 1017.5 - 0.0
23/11:24am 23.9 18.4 9.1 39 8.0 N 28 46 15 25 1017.6 - 0.0
23/11:00am 24.1 19.1 9.7 40 7.9 NNE 26 39 14 21 1017.7 - 0.0
23/10:30am 23.0 17.0 10.1 44 7.1 NNE 32 44 17 24 1018.2 - 0.0
23/10:00am 21.9 15.3 10.1 47 6.4 NNE 35 48 19 26 1018.7 - 0.0
23/09:30am 21.1 14.6 10.3 50 5.9 NNE 35 48 19 26 1018.8 - 0.0
23/09:00am 20.6 14.5 10.4 52 5.5 NNE 33 44 18 24 1019.0 1018.9 0.0
23/08:30am 19.5 13.5 10.0 54 5.1 NE 32 46 17 25 1019.3 - 0.0
23/08:00am 18.1 13.1 9.5 57 4.5 NE 26 35 14 19 1019.4 - 0.0
23/07:30am 16.2 10.6 8.7 61 3.8 NE 28 35 15 19 1019.5 - 0.0
23/07:00am 14.3 9.7 8.0 66 3.1 NE 22 30 12 16 1019.6 - 0.0
23/06:30am 12.8 8.3 6.8 67 2.9 NE 20 26 11 14 1019.5 - 0.0
23/06:00am 12.7 8.1 6.5 66 3.0 NE 20 24 11 13 1019.5 1019.4 0.0
23/05:30am 13.0 7.9 5.9 62 3.4 NE 22 28 12 15 1019.4 - 0.0
23/05:00am 11.7 7.4 5.1 64 3.0 ENE 17 22 9 12 1019.5 - 0.0
23/04:30am 11.6 7.0 3.9 59 3.4 NE 17 19 9 10 1019.7 - 0.0
23/04:00am 12.8 7.4 2.6 50 4.5 NE 20 24 11 13 1019.6 - 0.0
23/03:30am 12.6 7.1 1.9 48 4.6 NE 20 26 11 14 1019.6 - 0.0
23/03:00am 11.4 5.5 1.9 52 4.0 NE 22 26 12 14 1019.7 1019.6 0.0
23/02:30am 9.0 4.5 2.1 62 2.9 ENE 15 19 8 10 1019.7 - 0.0
23/02:00am 11.6 6.2 1.3 49 4.3 ENE 19 22 10 12 1019.8 - 0.0
23/01:30am 12.5 6.6 1.8 48 4.6 NE 22 26 12 14 1019.9 - 0.0
23/01:00am 7.5 3.1 2.8 72 2.0 ENE 15 17 8 9 1020.2 - 0.0
23/12:30am 6.8 2.1 3.1 77 1.6 E 17 20 9 11 1020.4 - 0.0
23/12:00am 7.2 2.5 3.3 76 1.6 E 17 17 9 9 1020.5 1020.4 0.0
 
Date/Time
CST
Temp
°C
App
Temp
°C
Dew
Point
Rel
Hum
%
Delta-T
°C
Wind Press
QNH
hPa
Press
MSL
hPa
Rain
since 9 am
mm
Dir
 
Spd
km/h
Gust
km/h
Spd
kts
Gust
kts
22/11:30pm 6.7 2.1 3.9 82 1.2 E 17 19 9 10 1020.6 - 0.0
22/11:00pm 6.3 2.2 4.1 86 0.9 ESE 15 17 8 9 1020.8 - 0.0
22/10:30pm 6.6 2.5 4.4 86 1.0 ESE 15 17 8 9 1021.0 - 0.0
22/10:00pm 6.9 3.2 4.4 84 1.1 ESE 13 15 7 8 1021.0 - 0.0
22/09:30pm 7.4 3.7 4.7 83 1.2 ESE 13 17 7 9 1021.3 - 0.0
22/09:00pm 8.1 4.1 5.0 81 1.4 ESE 15 17 8 9 1021.2 1021.1 0.0
22/08:30pm 8.8 4.5 5.2 78 1.6 ESE 17 19 9 10 1021.1 - 0.0
22/08:00pm 10.1 5.8 5.3 72 2.2 SE 17 20 9 11 1020.8 - 0.0
22/07:30pm 10.9 6.7 5.7 70 2.4 SE 17 19 9 10 1020.4 - 0.0
22/07:00pm 12.4 8.4 5.1 61 3.4 ESE 15 17 8 9 1020.1 - 0.0
22/06:30pm 17.3 14.6 3.6 40 6.4 ESE 7 9 4 5 1020.0 - 0.0
22/06:00pm 21.5 20.1 3.7 31 8.5 CALM 0 6 0 3 1019.8 1019.7 0.0
22/05:30pm 23.3 21.4 6.6 34 8.6 NNE 6 7 3 4 1019.7 - 0.0
22/05:00pm 24.2 20.8 1.8 23 10.6 N 9 13 5 7 1019.7 - 0.0
22/04:30pm 25.1 20.3 -0.1 19 11.6 N 15 22 8 12 1019.6 - 0.0
22/04:00pm 25.2 19.3 -2.4 16 12.2 N 19 24 10 13 1019.7 - 0.0
22/03:30pm 25.9 19.6 -3.6 14 12.8 N 20 30 11 16 1019.9 - 0.0
22/03:00pm 25.7 18.3 -6.9 11 13.2 N 24 32 13 17 1020.2 1020.1 0.0
22/02:30pm 25.9 17.8 -6.8 11 13.4 N 28 39 15 21 1020.5 - 0.0
22/02:00pm 25.5 17.3 -3.9 14 12.6 N 30 43 16 23 1021.0 - 0.0
22/01:30pm 24.6 15.8 -4.6 14 12.3 N 33 44 18 24 1021.6 - 0.0
22/01:00pm 24.6 16.1 -3.7 15 12.1 N 32 44 17 24 1022.1 - 0.0
22/12:30pm 24.1 16.4 -3.3 16 11.8 N 28 39 15 21 1022.5 - 0.0
22/12:00pm 24.0 16.8 -1.8 18 11.3 N 26 33 14 18 1023.1 1023.0 0.0
22/11:30am 23.4 15.5 -1.5 19 11.0 N 30 39 16 21 1023.5 - 0.0
22/11:00am 23.0 15.4 -1.8 19 10.9 N 28 35 15 19 1024.0 - 0.0
22/10:30am 23.1 16.1 -0.4 21 10.6 N 26 35 14 19 1024.4 - 0.0
22/10:00am 22.1 15.2 0.0 23 9.9 NNE 26 35 14 19 1024.6 - 0.0
22/09:30am 20.7 14.6 0.5 26 9.1 NNE 22 30 12 16 1024.9 - 0.0
22/09:00am 19.6 14.3 2.0 31 8.0 NE 19 26 10 14 1025.1 1024.9 0.0
22/08:30am 17.8 14.4 5.7 45 5.9 NE 13 20 7 11 1025.2 - 0.0
22/08:00am 14.6 10.1 4.3 50 4.8 NE 17 20 9 11 1025.3 - 0.0
22/07:30am 11.3 6.9 4.5 63 3.1 ENE 17 20 9 11 1025.3 - 0.0
22/07:00am 8.2 4.1 4.4 77 1.7 ENE 15 19 8 10 1025.3 - 0.0
22/06:30am 4.0 -0.9 2.2 88 0.7 ENE 17 20 9 11 1025.2 - 0.0
22/06:00am 2.0 -2.4 0.4 89 0.6 E 13 17 7 9 1025.1 1024.9 0.0
22/05:30am 2.2 -2.9 0.6 89 0.6 ENE 17 19 9 10 1024.9 - 0.0
22/05:00am 1.6 -3.2 0.0 89 0.6 ENE 15 17 8 9 1024.8 - 0.0
22/04:30am 1.9 -2.5 0.3 89 0.6 ENE 13 15 7 8 1024.6 - 0.0
22/04:00am 2.4 -2.7 0.9 90 0.6 E 17 17 9 9 1024.4 - 0.0
22/03:30am 3.6 -1.4 1.6 87 0.8 E 17 20 9 11 1024.3 - 0.0
22/03:00am 3.8 -1.5 2.0 88 0.7 E 19 20 10 11 1024.5 1024.3 0.0
22/02:30am 3.5 -1.4 2.0 90 0.6 ESE 17 19 9 10 1024.9 - 0.0
22/02:00am 4.2 -0.6 2.7 90 0.6 ESE 17 17 9 9 1025.3 - 0.0
22/01:30am 4.8 0.2 3.6 92 0.5 ESE 17 20 9 11 1025.7 - 0.0
22/01:00am 5.1 0.6 4.1 93 0.4 ESE 17 17 9 9 1026.0 - 0.0
22/12:30am 5.3 0.9 4.6 95 0.3 SE 17 17 9 9 1025.9 - 0.0
22/12:00am 4.7 0.5 3.8 94 0.4 ESE 15 17 8 9 1025.9 1025.7 0.0
 
Date/Time
CST
Temp
°C
App
Temp
°C
Dew
Point
Rel
Hum
%
Delta-T
°C
Wind Press
QNH
hPa
Press
MSL
hPa
Rain
since 9 am
mm
Dir
 
Spd
km/h
Gust
km/h
Spd
kts
Gust
kts
21/11:30pm 4.9 0.7 3.9 93 0.4 ESE 15 15 8 8 1025.8 - 0.0
21/11:00pm 4.8 0.6 3.6 92 0.5 ESE 15 15 8 8 1026.0 - 0.0
21/10:30pm 5.3 1.1 3.8 90 0.6 ESE 15 19 8 10 1026.2 - 0.0
21/10:00pm 5.1 0.8 3.4 89 0.7 ESE 15 17 8 9 1026.3 - 0.0
21/09:30pm 5.7 1.4 3.5 86 0.9 ESE 15 17 8 9 1026.4 - 0.0
21/09:00pm 6.1 1.5 3.8 85 1.0 ESE 17 19 9 10 1026.6 1026.4 0.0
21/08:30pm 7.4 2.4 3.8 78 1.5 ESE 19 20 10 11 1026.7 - 0.0
21/08:00pm 10.1 6.2 3.4 63 2.9 SSE 13 17 7 9 1026.9 - 0.0
21/07:30pm 10.6 6.5 4.1 64 2.9 SE 15 17 8 9 1026.7 - 0.0
21/07:00pm 12.2 8.6 4.9 61 3.4 SSW 13 15 7 8 1026.6 - 0.0
21/06:30pm 14.1 11.2 4.9 54 4.3 SSW 9 11 5 6 1026.4 - 0.0
21/06:00pm 16.9 14.2 5.8 48 5.4 SSW 9 13 5 7 1026.1 1025.9 0.0
21/05:30pm 19.8 16.1 4.7 37 7.3 SW 13 17 7 9 1026.1 - 0.0
21/05:00pm 22.0 18.2 4.1 31 8.7 WSW 13 17 7 9 1025.9 - 0.0
21/04:30pm 22.6 19.2 4.2 30 9.0 W 11 15 6 8 1025.7 - 0.0
21/04:00pm 22.8 18.3 2.3 26 9.7 W 15 17 8 9 1025.8 - 0.0
21/03:30pm 24.2 21.2 4.0 27 10.0 SSE 9 15 5 8 1025.8 - 0.0
21/03:00pm 24.4 20.1 3.1 25 10.3 E 15 26 8 14 1025.9 1025.7 0.0
21/02:30pm 24.1 19.5 1.7 23 10.6 ENE 15 30 8 16 1026.1 - 0.0
21/02:00pm 24.0 20.4 2.8 25 10.2 S 11 19 6 10 1026.1 - 0.0
21/01:30pm 23.8 20.0 3.7 27 9.8 NW 13 22 7 12 1026.7 - 0.0
21/01:00pm 23.4 19.8 2.8 26 9.9 E 11 19 6 10 1027.4 - 0.0
21/12:30pm 23.2 18.6 1.5 24 10.1 SE 15 24 8 13 1027.9 - 0.0
21/12:00pm 23.1 19.5 0.9 23 10.2 NNE 9 19 5 10 1028.6 1028.4 0.0

Other Formats:

Comma delimited format used in spreadsheet applications
http://www.bom.gov.au/fwo/IDS60801/IDS60801.94685.axf

JavaScript Object Notation format (JSON) in row-major order
http://www.bom.gov.au/fwo/IDS60801/IDS60801.94685.json